Portada
METAR-TAF:

METAR-TAF

Aeroports :

Northolt, Anglaterra

latitud: 51-33N, longitud: 000-25W, altitud: 38 m

Observació

L'informe es va fer fa 58 minuts, a les 04:50 UTC
Vent 6 kt del Sud/Sud-Oest
Temperatura 6°C
Humitat 93%
Pressió 999 hPa
Visibilitat 10 km o més

METAR: EGWU 160450Z AUTO 21006KT 9999 // OVC140/// 06/05 Q0999

Hora: 05:48 (05:48 UTC)

Pronòstic

L'informe es va fer fa 1 hora i 3 minuts, a les 04:45 UTC
Pronòstic vàlid del 16 a les 06 UTC al 16 a les 24 UTC
Vent 7 kt del Sud/Sud-Oest
Visibilitat 10 km o més
Escasses núvols a una alçada de 3000 ft
Probabilitat 30%
l' 16 a les 15 UTC al 16 a les 18 UTC
Visibilitat: 5000 m
boirina
Probabilitat 30% :
Temporalment
l' 16 a les 18 UTC al 16 a les 24 UTC
Visibilitat: 4000 m
Núvols disperses a una alçada de 800 ft
pluja

TAF: EGWU 160445Z 1606/1624 21007KT 9999 FEW030 PROB30 1615/1618 5000 BR PROB30 TEMPO 1618/1624 4000 -RA SCT008

Observacions i pronòstics meteorològics de més de 4000 aeroports (METAR i TAF).

Les estacions disponibles són els punts grocs i vermells al mapa.

Posi el ratolí al punt desitjat per veure el nom de l'estació.

Feu clic per veure les observacions i els pronòstics meteorològics.

Per canviar el mapa: feu clic els botons verds amb una creu de color negre per apropar; al botó verd amb un guió per allunyar la imatge; o en les fletxes verdes per a mapes adjacents.


METAR-TAF: